sensor_id;sensor_type;location;lat;lon;timestamp;P1;durP1;ratioP1;P2;durP2;ratioP2
51764;SDS011;37835;53.256;6.456;2022-08-14T00:02:01;5.07;;;4.57;;
51764;SDS011;37835;53.256;6.456;2022-08-14T00:04:28;6.65;;;4.45;;
51764;SDS011;37835;53.256;6.456;2022-08-14T00:06:57;9.18;;;6.40;;
51764;SDS011;37835;53.256;6.456;2022-08-14T00:09:23;5.47;;;4.97;;
51764;SDS011;37835;53.256;6.456;2022-08-14T00:11:49;7.65;;;5.20;;
51764;SDS011;37835;53.256;6.456;2022-08-14T00:14:14;8.38;;;5.40;;
51764;SDS011;37835;53.256;6.456;2022-08-14T00:16:40;6.78;;;5.05;;
51764;SDS011;37835;53.256;6.456;2022-08-14T00:19:06;6.65;;;5.50;;
51764;SDS011;37835;53.256;6.456;2022-08-14T00:21:32;5.97;;;5.28;;
51764;SDS011;37835;53.256;6.456;2022-08-14T00:23:58;6.97;;;5.68;;
51764;SDS011;37835;53.256;6.456;2022-08-14T00:26:23;6.20;;;5.30;;
51764;SDS011;37835;53.256;6.456;2022-08-14T00:28:50;10.55;;;6.28;;
51764;SDS011;37835;53.256;6.456;2022-08-14T00:31:16;8.93;;;5.88;;
51764;SDS011;37835;53.256;6.456;2022-08-14T00:33:42;8.73;;;5.55;;
51764;SDS011;37835;53.256;6.456;2022-08-14T00:36:08;6.93;;;5.47;;
51764;SDS011;37835;53.256;6.456;2022-08-14T00:38:34;6.60;;;5.78;;
51764;SDS011;37835;53.256;6.456;2022-08-14T00:41:00;6.38;;;5.55;;
51764;SDS011;37835;53.256;6.456;2022-08-14T00:43:31;11.97;;;6.47;;
51764;SDS011;37835;53.256;6.456;2022-08-14T00:46:02;7.45;;;6.20;;
51764;SDS011;37835;53.256;6.456;2022-08-14T00:48:29;16.42;;;6.25;;
51764;SDS011;37835;53.256;6.456;2022-08-14T00:50:54;6.93;;;6.10;;
51764;SDS011;37835;53.256;6.456;2022-08-14T00:53:20;6.60;;;5.90;;
51764;SDS011;37835;53.256;6.456;2022-08-14T00:55:47;9.48;;;6.35;;
51764;SDS011;37835;53.256;6.456;2022-08-14T00:58:15;9.35;;;6.97;;
51764;SDS011;37835;53.256;6.456;2022-08-14T01:01:00;12.68;;;6.40;;
51764;SDS011;37835;53.256;6.456;2022-08-14T01:03:29;8.60;;;6.82;;
51764;SDS011;37835;53.256;6.456;2022-08-14T01:05:56;10.48;;;6.90;;
51764;SDS011;37835;53.256;6.456;2022-08-14T01:08:24;11.13;;;6.20;;
51764;SDS011;37835;53.256;6.456;2022-08-14T01:10:51;8.07;;;7.28;;
51764;SDS011;37835;53.256;6.456;2022-08-14T01:13:20;10.55;;;7.38;;
51764;SDS011;37835;53.256;6.456;2022-08-14T01:15:49;8.82;;;7.40;;
51764;SDS011;37835;53.256;6.456;2022-08-14T01:18:17;12.15;;;7.32;;
51764;SDS011;37835;53.256;6.456;2022-08-14T01:21:02;9.35;;;7.95;;
51764;SDS011;37835;53.256;6.456;2022-08-14T01:23:37;10.20;;;7.82;;
51764;SDS011;37835;53.256;6.456;2022-08-14T01:26:05;11.52;;;7.47;;
51764;SDS011;37835;53.256;6.456;2022-08-14T01:28:32;9.43;;;8.20;;
51764;SDS011;37835;53.256;6.456;2022-08-14T01:31:00;8.32;;;7.60;;
51764;SDS011;37835;53.256;6.456;2022-08-14T01:33:27;11.50;;;8.40;;
51764;SDS011;37835;53.256;6.456;2022-08-14T01:35:54;9.13;;;8.20;;
51764;SDS011;37835;53.256;6.456;2022-08-14T01:38:22;9.30;;;7.70;;
51764;SDS011;37835;53.256;6.456;2022-08-14T01:40:49;8.85;;;7.80;;
51764;SDS011;37835;53.256;6.456;2022-08-14T01:43:15;13.63;;;8.43;;
51764;SDS011;37835;53.256;6.456;2022-08-14T01:45:42;9.55;;;7.68;;
51764;SDS011;37835;53.256;6.456;2022-08-14T01:48:09;9.48;;;8.10;;
51764;SDS011;37835;53.256;6.456;2022-08-14T01:50:36;9.05;;;8.13;;
51764;SDS011;37835;53.256;6.456;2022-08-14T01:53:01;9.05;;;8.30;;
51764;SDS011;37835;53.256;6.456;2022-08-14T01:55:27;11.40;;;8.27;;
51764;SDS011;37835;53.256;6.456;2022-08-14T01:57:56;11.82;;;8.48;;
51764;SDS011;37835;53.256;6.456;2022-08-14T02:00:22;9.57;;;8.68;;
51764;SDS011;37835;53.256;6.456;2022-08-14T02:02:48;9.60;;;8.80;;
51764;SDS011;37835;53.256;6.456;2022-08-14T02:05:14;10.45;;;9.02;;
51764;SDS011;37835;53.256;6.456;2022-08-14T02:07:41;9.52;;;8.45;;
51764;SDS011;37835;53.256;6.456;2022-08-14T02:10:09;9.70;;;8.75;;
51764;SDS011;37835;53.256;6.456;2022-08-14T02:12:36;10.30;;;8.43;;
51764;SDS011;37835;53.256;6.456;2022-08-14T02:15:05;9.30;;;8.43;;
51764;SDS011;37835;53.256;6.456;2022-08-14T02:17:35;15.68;;;9.02;;
51764;SDS011;37835;53.256;6.456;2022-08-14T02:20:01;9.98;;;9.02;;
51764;SDS011;37835;53.256;6.456;2022-08-14T02:22:28;10.40;;;8.80;;
51764;SDS011;37835;53.256;6.456;2022-08-14T02:24:53;9.55;;;8.65;;
51764;SDS011;37835;53.256;6.456;2022-08-14T02:27:19;11.50;;;8.70;;
51764;SDS011;37835;53.256;6.456;2022-08-14T02:29:45;10.55;;;9.02;;
51764;SDS011;37835;53.256;6.456;2022-08-14T02:32:11;16.88;;;8.82;;
51764;SDS011;37835;53.256;6.456;2022-08-14T02:34:40;16.45;;;8.77;;
51764;SDS011;37835;53.256;6.456;2022-08-14T02:37:08;9.95;;;9.07;;
51764;SDS011;37835;53.256;6.456;2022-08-14T02:39:39;10.18;;;8.85;;
51764;SDS011;37835;53.256;6.456;2022-08-14T02:44:33;10.60;;;9.52;;
51764;SDS011;37835;53.256;6.456;2022-08-14T02:46:59;10.50;;;9.50;;
51764;SDS011;37835;53.256;6.456;2022-08-14T02:49:25;10.52;;;9.52;;
51764;SDS011;37835;53.256;6.456;2022-08-14T02:51:51;11.88;;;10.13;;
51764;SDS011;37835;53.256;6.456;2022-08-14T02:54:18;11.23;;;10.13;;
51764;SDS011;37835;53.256;6.456;2022-08-14T02:56:47;11.13;;;10.07;;
51764;SDS011;37835;53.256;6.456;2022-08-14T02:59:14;11.88;;;10.77;;
51764;SDS011;37835;53.256;6.456;2022-08-14T03:01:41;13.63;;;10.90;;
51764;SDS011;37835;53.256;6.456;2022-08-14T03:04:07;12.13;;;11.02;;
51764;SDS011;37835;53.256;6.456;2022-08-14T03:06:34;11.70;;;10.60;;
51764;SDS011;37835;53.256;6.456;2022-08-14T03:09:02;12.75;;;11.20;;
51764;SDS011;37835;53.256;6.456;2022-08-14T03:11:28;11.73;;;10.52;;
51764;SDS011;37835;53.256;6.456;2022-08-14T03:13:55;17.05;;;11.63;;
51764;SDS011;37835;53.256;6.456;2022-08-14T03:16:23;12.65;;;10.98;;
51764;SDS011;37835;53.256;6.456;2022-08-14T03:18:50;13.20;;;10.23;;
51764;SDS011;37835;53.256;6.456;2022-08-14T03:21:24;11.43;;;10.43;;
51764;SDS011;37835;53.256;6.456;2022-08-14T03:23:51;11.27;;;10.27;;
51764;SDS011;37835;53.256;6.456;2022-08-14T03:26:34;11.85;;;10.75;;
51764;SDS011;37835;53.256;6.456;2022-08-14T03:29:00;12.18;;;10.98;;
51764;SDS011;37835;53.256;6.456;2022-08-14T03:31:26;11.85;;;10.55;;
51764;SDS011;37835;53.256;6.456;2022-08-14T03:33:52;11.88;;;10.63;;
51764;SDS011;37835;53.256;6.456;2022-08-14T03:36:19;12.18;;;10.98;;
51764;SDS011;37835;53.256;6.456;2022-08-14T03:38:46;13.15;;;11.23;;
51764;SDS011;37835;53.256;6.456;2022-08-14T03:41:18;14.88;;;11.93;;
51764;SDS011;37835;53.256;6.456;2022-08-14T03:46:13;17.42;;;11.48;;
51764;SDS011;37835;53.256;6.456;2022-08-14T03:48:39;13.10;;;10.80;;
51764;SDS011;37835;53.256;6.456;2022-08-14T03:51:07;13.68;;;11.30;;
51764;SDS011;37835;53.256;6.456;2022-08-14T03:53:34;14.20;;;11.80;;
51764;SDS011;37835;53.256;6.456;2022-08-14T03:56:02;16.70;;;12.05;;
51764;SDS011;37835;53.256;6.456;2022-08-14T03:58:29;12.60;;;11.50;;
51764;SDS011;37835;53.256;6.456;2022-08-14T04:00:56;13.07;;;11.68;;
51764;SDS011;37835;53.256;6.456;2022-08-14T04:03:23;12.65;;;11.43;;
51764;SDS011;37835;53.256;6.456;2022-08-14T04:05:50;12.88;;;11.55;;
51764;SDS011;37835;53.256;6.456;2022-08-14T04:08:17;13.57;;;11.95;;
51764;SDS011;37835;53.256;6.456;2022-08-14T04:10:42;12.85;;;11.55;;
51764;SDS011;37835;53.256;6.456;2022-08-14T04:13:10;13.20;;;11.45;;
51764;SDS011;37835;53.256;6.456;2022-08-14T04:15:37;14.65;;;11.60;;
51764;SDS011;37835;53.256;6.456;2022-08-14T04:18:05;13.68;;;11.63;;
51764;SDS011;37835;53.256;6.456;2022-08-14T04:20:33;14.63;;;11.77;;
51764;SDS011;37835;53.256;6.456;2022-08-14T04:22:59;18.23;;;11.95;;
51764;SDS011;37835;53.256;6.456;2022-08-14T04:25:25;16.58;;;11.45;;
51764;SDS011;37835;53.256;6.456;2022-08-14T04:27:51;13.75;;;12.27;;
51764;SDS011;37835;53.256;6.456;2022-08-14T04:30:16;13.07;;;11.75;;
51764;SDS011;37835;53.256;6.456;2022-08-14T04:32:42;13.45;;;12.15;;
51764;SDS011;37835;53.256;6.456;2022-08-14T04:35:09;13.23;;;11.95;;
51764;SDS011;37835;53.256;6.456;2022-08-14T04:37:35;12.43;;;11.43;;
51764;SDS011;37835;53.256;6.456;2022-08-14T04:40:19;12.88;;;11.57;;
51764;SDS011;37835;53.256;6.456;2022-08-14T04:43:03;12.35;;;10.52;;
51764;SDS011;37835;53.256;6.456;2022-08-14T04:45:47;12.73;;;11.43;;
51764;SDS011;37835;53.256;6.456;2022-08-14T04:48:13;14.40;;;11.65;;
51764;SDS011;37835;53.256;6.456;2022-08-14T04:50:44;15.77;;;11.23;;
51764;SDS011;37835;53.256;6.456;2022-08-14T04:53:12;13.77;;;12.27;;
51764;SDS011;37835;53.256;6.456;2022-08-14T04:55:41;12.43;;;11.13;;
51764;SDS011;37835;53.256;6.456;2022-08-14T04:58:12;12.75;;;11.10;;
51764;SDS011;37835;53.256;6.456;2022-08-14T05:00:39;11.80;;;10.80;;
51764;SDS011;37835;53.256;6.456;2022-08-14T05:03:06;14.25;;;11.75;;
51764;SDS011;37835;53.256;6.456;2022-08-14T05:05:32;13.38;;;11.02;;
51764;SDS011;37835;53.256;6.456;2022-08-14T05:08:08;14.20;;;10.93;;
51764;SDS011;37835;53.256;6.456;2022-08-14T05:10:41;14.20;;;10.48;;
51764;SDS011;37835;53.256;6.456;2022-08-14T05:13:09;12.20;;;11.02;;
51764;SDS011;37835;53.256;6.456;2022-08-14T05:15:36;12.02;;;10.23;;
51764;SDS011;37835;53.256;6.456;2022-08-14T05:18:07;13.23;;;10.30;;
51764;SDS011;37835;53.256;6.456;2022-08-14T05:20:37;10.65;;;9.65;;
51764;SDS011;37835;53.256;6.456;2022-08-14T05:23:08;10.80;;;9.23;;
51764;SDS011;37835;53.256;6.456;2022-08-14T05:25:34;12.07;;;9.70;;
51764;SDS011;37835;53.256;6.456;2022-08-14T05:28:10;11.13;;;10.13;;
51764;SDS011;37835;53.256;6.456;2022-08-14T05:30:43;11.63;;;10.10;;
51764;SDS011;37835;53.256;6.456;2022-08-14T05:33:10;11.65;;;10.45;;
51764;SDS011;37835;53.256;6.456;2022-08-14T05:35:37;11.75;;;10.40;;
51764;SDS011;37835;53.256;6.456;2022-08-14T05:38:07;13.02;;;10.65;;
51764;SDS011;37835;53.256;6.456;2022-08-14T05:40:33;10.50;;;9.50;;
51764;SDS011;37835;53.256;6.456;2022-08-14T05:42:59;13.10;;;9.90;;
51764;SDS011;37835;53.256;6.456;2022-08-14T05:45:25;12.18;;;8.93;;
51764;SDS011;37835;53.256;6.456;2022-08-14T05:47:51;11.73;;;9.50;;
51764;SDS011;37835;53.256;6.456;2022-08-14T05:50:16;10.35;;;9.45;;
51764;SDS011;37835;53.256;6.456;2022-08-14T05:52:42;10.68;;;9.45;;
51764;SDS011;37835;53.256;6.456;2022-08-14T05:55:09;11.68;;;9.23;;
51764;SDS011;37835;53.256;6.456;2022-08-14T06:00:32;10.27;;;9.13;;
51764;SDS011;37835;53.256;6.456;2022-08-14T06:03:03;11.10;;;9.40;;
51764;SDS011;37835;53.256;6.456;2022-08-14T06:05:30;12.20;;;8.80;;
51764;SDS011;37835;53.256;6.456;2022-08-14T06:07:59;9.45;;;7.93;;
51764;SDS011;37835;53.256;6.456;2022-08-14T06:10:25;13.63;;;8.98;;
51764;SDS011;37835;53.256;6.456;2022-08-14T06:12:53;10.88;;;8.93;;
51764;SDS011;37835;53.256;6.456;2022-08-14T06:15:18;9.65;;;8.77;;
51764;SDS011;37835;53.256;6.456;2022-08-14T06:17:44;10.15;;;8.90;;
51764;SDS011;37835;53.256;6.456;2022-08-14T06:20:12;9.88;;;8.27;;
51764;SDS011;37835;53.256;6.456;2022-08-14T06:22:39;9.20;;;8.40;;
51764;SDS011;37835;53.256;6.456;2022-08-14T06:25:06;10.05;;;8.55;;
51764;SDS011;37835;53.256;6.456;2022-08-14T06:27:36;8.80;;;8.02;;
51764;SDS011;37835;53.256;6.456;2022-08-14T06:30:07;8.48;;;7.68;;
51764;SDS011;37835;53.256;6.456;2022-08-14T06:32:34;9.07;;;8.02;;
51764;SDS011;37835;53.256;6.456;2022-08-14T06:35:00;7.85;;;7.15;;
51764;SDS011;37835;53.256;6.456;2022-08-14T06:37:36;8.00;;;7.30;;
51764;SDS011;37835;53.256;6.456;2022-08-14T06:40:03;8.63;;;7.40;;
51764;SDS011;37835;53.256;6.456;2022-08-14T06:42:29;11.95;;;7.90;;
51764;SDS011;37835;53.256;6.456;2022-08-14T06:44:55;9.98;;;8.57;;
51764;SDS011;37835;53.256;6.456;2022-08-14T06:47:21;10.23;;;8.55;;
51764;SDS011;37835;53.256;6.456;2022-08-14T06:49:47;11.70;;;8.27;;
51764;SDS011;37835;53.256;6.456;2022-08-14T06:52:12;11.07;;;8.75;;
51764;SDS011;37835;53.256;6.456;2022-08-14T06:54:38;9.18;;;8.20;;
51764;SDS011;37835;53.256;6.456;2022-08-14T06:57:04;15.77;;;8.77;;
51764;SDS011;37835;53.256;6.456;2022-08-14T06:59:30;10.32;;;8.32;;
51764;SDS011;37835;53.256;6.456;2022-08-14T07:01:56;12.18;;;8.82;;
51764;SDS011;37835;53.256;6.456;2022-08-14T07:04:40;14.13;;;8.10;;
51764;SDS011;37835;53.256;6.456;2022-08-14T07:07:24;10.73;;;8.45;;
51764;SDS011;37835;53.256;6.456;2022-08-14T07:09:49;13.02;;;7.45;;
51764;SDS011;37835;53.256;6.456;2022-08-14T07:12:15;8.63;;;7.68;;
51764;SDS011;37835;53.256;6.456;2022-08-14T07:14:42;8.55;;;7.72;;
51764;SDS011;37835;53.256;6.456;2022-08-14T07:17:07;8.52;;;7.60;;
51764;SDS011;37835;53.256;6.456;2022-08-14T07:19:33;11.65;;;7.78;;
51764;SDS011;37835;53.256;6.456;2022-08-14T07:21:58;9.05;;;8.15;;
51764;SDS011;37835;53.256;6.456;2022-08-14T07:24:24;7.72;;;6.93;;
51764;SDS011;37835;53.256;6.456;2022-08-14T07:26:50;9.20;;;7.63;;
51764;SDS011;37835;53.256;6.456;2022-08-14T07:29:15;9.38;;;7.72;;
51764;SDS011;37835;53.256;6.456;2022-08-14T07:31:41;7.68;;;6.78;;
51764;SDS011;37835;53.256;6.456;2022-08-14T07:34:07;7.40;;;6.80;;
51764;SDS011;37835;53.256;6.456;2022-08-14T07:36:32;10.90;;;6.75;;
51764;SDS011;37835;53.256;6.456;2022-08-14T07:38:58;7.88;;;6.85;;
51764;SDS011;37835;53.256;6.456;2022-08-14T07:41:25;7.20;;;6.60;;
51764;SDS011;37835;53.256;6.456;2022-08-14T07:43:50;10.85;;;6.60;;
51764;SDS011;37835;53.256;6.456;2022-08-14T07:46:16;7.45;;;6.55;;
51764;SDS011;37835;53.256;6.456;2022-08-14T07:48:42;8.55;;;6.35;;
51764;SDS011;37835;53.256;6.456;2022-08-14T07:51:08;11.98;;;6.40;;
51764;SDS011;37835;53.256;6.456;2022-08-14T07:53:34;6.65;;;6.03;;
51764;SDS011;37835;53.256;6.456;2022-08-14T07:56:00;8.73;;;6.25;;
51764;SDS011;37835;53.256;6.456;2022-08-14T07:58:25;11.30;;;6.07;;
51764;SDS011;37835;53.256;6.456;2022-08-14T08:00:53;6.60;;;6.07;;
51764;SDS011;37835;53.256;6.456;2022-08-14T08:03:20;6.88;;;5.97;;
51764;SDS011;37835;53.256;6.456;2022-08-14T08:05:48;8.90;;;5.93;;
51764;SDS011;37835;53.256;6.456;2022-08-14T08:08:14;9.95;;;6.13;;
51764;SDS011;37835;53.256;6.456;2022-08-14T08:10:41;6.32;;;5.70;;
51764;SDS011;37835;53.256;6.456;2022-08-14T08:13:15;7.05;;;5.70;;
51764;SDS011;37835;53.256;6.456;2022-08-14T08:15:47;8.40;;;6.10;;
51764;SDS011;37835;53.256;6.456;2022-08-14T08:18:15;7.95;;;5.63;;
51764;SDS011;37835;53.256;6.456;2022-08-14T08:20:46;7.13;;;5.80;;
51764;SDS011;37835;53.256;6.456;2022-08-14T08:23:14;6.35;;;5.75;;
51764;SDS011;37835;53.256;6.456;2022-08-14T08:25:42;6.32;;;5.72;;
51764;SDS011;37835;53.256;6.456;2022-08-14T08:28:10;7.18;;;5.55;;
51764;SDS011;37835;53.256;6.456;2022-08-14T08:30:38;6.45;;;5.85;;
51764;SDS011;37835;53.256;6.456;2022-08-14T08:33:06;8.77;;;5.65;;
51764;SDS011;37835;53.256;6.456;2022-08-14T08:35:34;6.68;;;6.00;;
51764;SDS011;37835;53.256;6.456;2022-08-14T08:38:06;6.55;;;5.40;;
51764;SDS011;37835;53.256;6.456;2022-08-14T08:40:34;6.60;;;5.70;;
51764;SDS011;37835;53.256;6.456;2022-08-14T08:43:16;5.75;;;5.32;;
51764;SDS011;37835;53.256;6.456;2022-08-14T08:45:51;7.38;;;5.30;;
51764;SDS011;37835;53.256;6.456;2022-08-14T08:48:19;8.70;;;5.47;;
51764;SDS011;37835;53.256;6.456;2022-08-14T08:50:45;7.93;;;5.60;;
51764;SDS011;37835;53.256;6.456;2022-08-14T08:53:11;6.47;;;5.20;;
51764;SDS011;37835;53.256;6.456;2022-08-14T08:55:41;7.28;;;5.35;;
51764;SDS011;37835;53.256;6.456;2022-08-14T08:58:13;8.77;;;5.00;;
51764;SDS011;37835;53.256;6.456;2022-08-14T09:00:44;5.45;;;5.05;;
51764;SDS011;37835;53.256;6.456;2022-08-14T09:03:12;6.53;;;5.05;;
51764;SDS011;37835;53.256;6.456;2022-08-14T09:05:54;6.30;;;5.25;;
51764;SDS011;37835;53.256;6.456;2022-08-14T09:08:28;4.40;;;4.10;;
51764;SDS011;37835;53.256;6.456;2022-08-14T09:10:56;8.80;;;4.80;;
51764;SDS011;37835;53.256;6.456;2022-08-14T09:13:22;7.70;;;5.00;;
51764;SDS011;37835;53.256;6.456;2022-08-14T09:15:52;5.82;;;4.90;;
51764;SDS011;37835;53.256;6.456;2022-08-14T09:18:19;5.15;;;4.75;;
51764;SDS011;37835;53.256;6.456;2022-08-14T09:20:47;6.05;;;4.45;;
51764;SDS011;37835;53.256;6.456;2022-08-14T09:23:17;6.35;;;4.65;;
51764;SDS011;37835;53.256;6.456;2022-08-14T09:25:45;5.35;;;4.85;;
51764;SDS011;37835;53.256;6.456;2022-08-14T09:28:12;5.25;;;4.57;;
51764;SDS011;37835;53.256;6.456;2022-08-14T09:30:40;6.03;;;4.68;;
51764;SDS011;37835;53.256;6.456;2022-08-14T09:33:16;5.13;;;4.65;;
51764;SDS011;37835;53.256;6.456;2022-08-14T09:47:38;5.60;;;4.45;;
51764;SDS011;37835;53.256;6.456;2022-08-14T09:50:15;4.68;;;4.22;;
51764;SDS011;37835;53.256;6.456;2022-08-14T09:52:52;6.80;;;4.60;;
51764;SDS011;37835;53.256;6.456;2022-08-14T09:55:21;5.97;;;4.38;;
51764;SDS011;37835;53.256;6.456;2022-08-14T09:57:48;5.10;;;4.60;;
51764;SDS011;37835;53.256;6.456;2022-08-14T10:00:17;4.45;;;4.15;;
51764;SDS011;37835;53.256;6.456;2022-08-14T10:02:55;4.80;;;4.40;;
51764;SDS011;37835;53.256;6.456;2022-08-14T10:05:27;4.40;;;4.10;;
51764;SDS011;37835;53.256;6.456;2022-08-14T10:07:55;6.45;;;4.45;;
51764;SDS011;37835;53.256;6.456;2022-08-14T10:10:32;4.30;;;4.00;;
51764;SDS011;37835;53.256;6.456;2022-08-14T10:13:01;4.55;;;4.05;;
51764;SDS011;37835;53.256;6.456;2022-08-14T10:15:30;5.22;;;4.22;;
51764;SDS011;37835;53.256;6.456;2022-08-14T10:20:34;5.85;;;4.40;;
51764;SDS011;37835;53.256;6.456;2022-08-14T10:23:25;6.65;;;4.60;;
51764;SDS011;37835;53.256;6.456;2022-08-14T10:25:57;7.45;;;5.10;;
51764;SDS011;37835;53.256;6.456;2022-08-14T10:28:36;5.13;;;4.45;;
51764;SDS011;37835;53.256;6.456;2022-08-14T10:31:26;6.90;;;5.05;;
51764;SDS011;37835;53.256;6.456;2022-08-14T10:33:58;5.32;;;4.82;;
51764;SDS011;37835;53.256;6.456;2022-08-14T10:36:43;6.03;;;5.15;;
51764;SDS011;37835;53.256;6.456;2022-08-14T10:39:16;5.63;;;4.57;;
51764;SDS011;37835;53.256;6.456;2022-08-14T10:41:47;4.97;;;4.55;;
51764;SDS011;37835;53.256;6.456;2022-08-14T10:44:17;8.35;;;4.35;;
51764;SDS011;37835;53.256;6.456;2022-08-14T10:49:24;7.18;;;4.72;;
51764;SDS011;37835;53.256;6.456;2022-08-14T10:51:54;5.00;;;4.60;;
51764;SDS011;37835;53.256;6.456;2022-08-14T10:54:34;4.88;;;4.57;;
51764;SDS011;37835;53.256;6.456;2022-08-14T10:59:40;4.97;;;4.57;;
51764;SDS011;37835;53.256;6.456;2022-08-14T11:05:12;5.05;;;3.50;;
51764;SDS011;37835;53.256;6.456;2022-08-14T11:10:37;4.10;;;3.80;;
51764;SDS011;37835;53.256;6.456;2022-08-14T11:13:29;5.53;;;4.15;;
51764;SDS011;37835;53.256;6.456;2022-08-14T11:15:56;4.20;;;3.90;;
51764;SDS011;37835;53.256;6.456;2022-08-14T11:18:27;8.23;;;4.07;;
51764;SDS011;37835;53.256;6.456;2022-08-14T11:20:56;5.57;;;4.18;;
51764;SDS011;37835;53.256;6.456;2022-08-14T11:23:28;5.32;;;3.85;;
51764;SDS011;37835;53.256;6.456;2022-08-14T11:25:57;4.13;;;3.83;;
51764;SDS011;37835;53.256;6.456;2022-08-14T11:28:24;5.13;;;4.65;;
51764;SDS011;37835;53.256;6.456;2022-08-14T11:30:51;4.10;;;3.80;;
51764;SDS011;37835;53.256;6.456;2022-08-14T11:33:21;4.60;;;4.25;;
51764;SDS011;37835;53.256;6.456;2022-08-14T11:35:48;4.47;;;4.18;;
51764;SDS011;37835;53.256;6.456;2022-08-14T11:38:14;7.30;;;4.13;;
51764;SDS011;37835;53.256;6.456;2022-08-14T11:40:44;4.75;;;4.03;;
51764;SDS011;37835;53.256;6.456;2022-08-14T11:43:10;4.53;;;4.10;;
51764;SDS011;37835;53.256;6.456;2022-08-14T11:45:37;5.30;;;4.57;;
51764;SDS011;37835;53.256;6.456;2022-08-14T11:48:18;6.47;;;4.70;;
51764;SDS011;37835;53.256;6.456;2022-08-14T11:50:45;6.30;;;4.07;;
51764;SDS011;37835;53.256;6.456;2022-08-14T11:53:19;4.43;;;4.07;;
51764;SDS011;37835;53.256;6.456;2022-08-14T11:56:03;4.68;;;4.28;;
51764;SDS011;37835;53.256;6.456;2022-08-14T11:58:34;4.72;;;4.30;;
51764;SDS011;37835;53.256;6.456;2022-08-14T12:03:37;5.88;;;4.00;;
51764;SDS011;37835;53.256;6.456;2022-08-14T12:06:05;4.38;;;4.05;;
51764;SDS011;37835;53.256;6.456;2022-08-14T12:08:32;5.10;;;4.68;;
51764;SDS011;37835;53.256;6.456;2022-08-14T12:10:59;7.63;;;4.07;;
51764;SDS011;37835;53.256;6.456;2022-08-14T12:13:27;4.50;;;4.20;;
51764;SDS011;37835;53.256;6.456;2022-08-14T12:16:00;4.70;;;4.15;;
51764;SDS011;37835;53.256;6.456;2022-08-14T12:18:31;4.85;;;4.47;;
51764;SDS011;37835;53.256;6.456;2022-08-14T12:23:34;4.10;;;3.70;;
51764;SDS011;37835;53.256;6.456;2022-08-14T12:26:01;4.57;;;3.90;;
51764;SDS011;37835;53.256;6.456;2022-08-14T12:28:31;4.53;;;4.20;;
51764;SDS011;37835;53.256;6.456;2022-08-14T12:30:57;4.47;;;4.13;;
51764;SDS011;37835;53.256;6.456;2022-08-14T12:33:25;7.35;;;4.68;;
51764;SDS011;37835;53.256;6.456;2022-08-14T12:35:57;4.18;;;3.88;;
51764;SDS011;37835;53.256;6.456;2022-08-14T12:38:34;4.93;;;4.20;;
51764;SDS011;37835;53.256;6.456;2022-08-14T12:41:02;6.07;;;4.60;;
51764;SDS011;37835;53.256;6.456;2022-08-14T12:43:42;6.18;;;4.65;;
51764;SDS011;37835;53.256;6.456;2022-08-14T12:49:12;6.03;;;5.25;;
51764;SDS011;37835;53.256;6.456;2022-08-14T12:51:40;4.97;;;4.47;;
51764;SDS011;37835;53.256;6.456;2022-08-14T12:54:14;6.65;;;4.82;;
51764;SDS011;37835;53.256;6.456;2022-08-14T12:56:42;6.15;;;4.40;;
51764;SDS011;37835;53.256;6.456;2022-08-14T12:59:10;5.05;;;4.45;;
51764;SDS011;37835;53.256;6.456;2022-08-14T13:01:36;5.55;;;4.85;;
51764;SDS011;37835;53.256;6.456;2022-08-14T13:06:32;4.97;;;4.55;;
51764;SDS011;37835;53.256;6.456;2022-08-14T13:08:58;4.88;;;4.45;;
51764;SDS011;37835;53.256;6.456;2022-08-14T13:11:24;4.40;;;3.90;;
51764;SDS011;37835;53.256;6.456;2022-08-14T13:13:57;4.82;;;4.22;;
51764;SDS011;37835;53.256;6.456;2022-08-14T13:16:23;4.13;;;3.83;;
51764;SDS011;37835;53.256;6.456;2022-08-14T13:18:52;5.43;;;4.35;;
51764;SDS011;37835;53.256;6.456;2022-08-14T13:21:25;6.97;;;4.35;;
51764;SDS011;37835;53.256;6.456;2022-08-14T13:23:52;6.88;;;4.90;;
51764;SDS011;37835;53.256;6.456;2022-08-14T13:26:19;4.55;;;4.18;;
51764;SDS011;37835;53.256;6.456;2022-08-14T13:28:48;6.30;;;4.80;;
51764;SDS011;37835;53.256;6.456;2022-08-14T13:31:16;5.13;;;4.40;;
51764;SDS011;37835;53.256;6.456;2022-08-14T13:33:46;5.55;;;4.43;;
51764;SDS011;37835;53.256;6.456;2022-08-14T13:36:12;7.40;;;4.25;;
51764;SDS011;37835;53.256;6.456;2022-08-14T13:38:38;4.75;;;4.35;;
51764;SDS011;37835;53.256;6.456;2022-08-14T13:41:06;9.07;;;4.55;;
51764;SDS011;37835;53.256;6.456;2022-08-14T13:43:33;4.85;;;4.35;;
51764;SDS011;37835;53.256;6.456;2022-08-14T13:46:03;5.90;;;4.55;;
51764;SDS011;37835;53.256;6.456;2022-08-14T13:48:29;4.68;;;4.28;;
51764;SDS011;37835;53.256;6.456;2022-08-14T13:50:56;4.80;;;4.40;;
51764;SDS011;37835;53.256;6.456;2022-08-14T13:53:23;5.15;;;4.40;;
51764;SDS011;37835;53.256;6.456;2022-08-14T13:55:51;5.00;;;4.60;;
51764;SDS011;37835;53.256;6.456;2022-08-14T13:58:18;5.10;;;4.55;;
51764;SDS011;37835;53.256;6.456;2022-08-14T14:00:46;6.93;;;4.75;;
51764;SDS011;37835;53.256;6.456;2022-08-14T14:03:16;5.65;;;4.32;;
51764;SDS011;37835;53.256;6.456;2022-08-14T14:05:48;5.60;;;4.40;;
51764;SDS011;37835;53.256;6.456;2022-08-14T14:08:15;5.35;;;4.22;;
51764;SDS011;37835;53.256;6.456;2022-08-14T14:10:43;8.10;;;4.65;;
51764;SDS011;37835;53.256;6.456;2022-08-14T14:13:09;6.03;;;4.22;;
51764;SDS011;37835;53.256;6.456;2022-08-14T14:15:38;9.43;;;4.78;;
51764;SDS011;37835;53.256;6.456;2022-08-14T14:18:04;4.55;;;4.15;;
51764;SDS011;37835;53.256;6.456;2022-08-14T14:20:30;9.68;;;4.60;;
51764;SDS011;37835;53.256;6.456;2022-08-14T14:22:55;5.25;;;4.63;;
51764;SDS011;37835;53.256;6.456;2022-08-14T14:25:22;5.43;;;4.15;;
51764;SDS011;37835;53.256;6.456;2022-08-14T14:27:48;6.63;;;4.25;;
51764;SDS011;37835;53.256;6.456;2022-08-14T14:30:15;5.68;;;4.93;;
51764;SDS011;37835;53.256;6.456;2022-08-14T14:32:43;4.97;;;4.53;;
51764;SDS011;37835;53.256;6.456;2022-08-14T14:35:10;5.35;;;4.40;;
51764;SDS011;37835;53.256;6.456;2022-08-14T14:37:43;4.97;;;4.57;;
51764;SDS011;37835;53.256;6.456;2022-08-14T14:40:11;4.75;;;4.35;;
51764;SDS011;37835;53.256;6.456;2022-08-14T14:42:48;5.53;;;4.78;;
51764;SDS011;37835;53.256;6.456;2022-08-14T14:45:16;5.28;;;4.88;;
51764;SDS011;37835;53.256;6.456;2022-08-14T14:47:48;4.82;;;4.40;;
51764;SDS011;37835;53.256;6.456;2022-08-14T14:50:16;4.85;;;4.45;;
51764;SDS011;37835;53.256;6.456;2022-08-14T14:52:42;7.40;;;4.30;;
51764;SDS011;37835;53.256;6.456;2022-08-14T14:55:09;5.05;;;4.55;;
51764;SDS011;37835;53.256;6.456;2022-08-14T14:57:40;5.05;;;4.55;;
51764;SDS011;37835;53.256;6.456;2022-08-14T15:02:35;5.53;;;4.45;;
51764;SDS011;37835;53.256;6.456;2022-08-14T15:05:02;5.57;;;4.50;;
51764;SDS011;37835;53.256;6.456;2022-08-14T15:07:29;4.47;;;4.07;;
51764;SDS011;37835;53.256;6.456;2022-08-14T15:09:56;5.03;;;4.38;;
51764;SDS011;37835;53.256;6.456;2022-08-14T15:12:23;4.78;;;4.28;;
51764;SDS011;37835;53.256;6.456;2022-08-14T15:14:49;4.85;;;4.45;;
51764;SDS011;37835;53.256;6.456;2022-08-14T15:17:14;4.88;;;4.47;;
51764;SDS011;37835;53.256;6.456;2022-08-14T15:19:40;5.03;;;4.13;;
51764;SDS011;37835;53.256;6.456;2022-08-14T15:22:06;6.70;;;4.63;;
51764;SDS011;37835;53.256;6.456;2022-08-14T15:24:32;4.88;;;4.47;;
51764;SDS011;37835;53.256;6.456;2022-08-14T15:26:58;5.10;;;4.57;;
51764;SDS011;37835;53.256;6.456;2022-08-14T15:29:24;4.65;;;4.22;;
51764;SDS011;37835;53.256;6.456;2022-08-14T15:31:51;4.45;;;4.10;;
51764;SDS011;37835;53.256;6.456;2022-08-14T15:34:18;4.90;;;4.40;;
51764;SDS011;37835;53.256;6.456;2022-08-14T15:36:44;7.45;;;4.68;;